createdAt,value
2022-08-26T00:01:55.542Z,16.93
2022-08-26T00:04:25.031Z,16.47
2022-08-26T00:06:52.944Z,13.33
2022-08-26T00:09:21.791Z,13.23
2022-08-26T00:11:49.661Z,15.00
2022-08-26T00:14:18.752Z,16.30
2022-08-26T00:16:47.507Z,14.07
2022-08-26T00:19:18.747Z,12.70
2022-08-26T00:21:49.687Z,13.33
2022-08-26T00:24:18.470Z,14.67
2022-08-26T00:26:46.333Z,12.80
2022-08-26T00:29:14.885Z,14.27
2022-08-26T00:31:42.742Z,20.23
2022-08-26T00:34:13.850Z,17.70
2022-08-26T00:36:43.397Z,17.27
2022-08-26T00:39:11.086Z,17.17
2022-08-26T00:41:40.296Z,13.60
2022-08-26T00:44:08.387Z,13.87
2022-08-26T00:46:46.587Z,17.00
2022-08-26T00:49:17.876Z,12.97
2022-08-26T00:51:51.824Z,15.50
2022-08-26T00:54:22.070Z,12.97
2022-08-26T00:56:55.321Z,20.80
2022-08-26T00:59:24.852Z,12.87
2022-08-26T01:01:53.151Z,12.83
2022-08-26T01:04:24.130Z,17.00
2022-08-26T01:06:55.593Z,13.83
2022-08-26T01:09:23.928Z,14.73
2022-08-26T01:11:56.426Z,16.30
2022-08-26T01:14:27.715Z,12.60
2022-08-26T01:16:55.377Z,13.07
2022-08-26T01:19:38.704Z,16.83
2022-08-26T01:22:13.324Z,14.53
2022-08-26T01:24:42.695Z,16.40
2022-08-26T01:27:13.475Z,15.23
2022-08-26T01:29:45.168Z,12.50
2022-08-26T01:32:19.294Z,15.03
2022-08-26T01:34:49.116Z,14.13
2022-08-26T01:37:20.993Z,13.90
2022-08-26T01:39:53.069Z,13.47
2022-08-26T01:42:23.360Z,14.20
2022-08-26T01:44:54.797Z,23.70
2022-08-26T01:47:26.401Z,21.87
2022-08-26T01:49:56.862Z,15.20
2022-08-26T01:52:27.648Z,15.90
2022-08-26T01:55:00.030Z,19.37
2022-08-26T01:57:28.725Z,15.57
2022-08-26T01:59:59.296Z,15.33
2022-08-26T02:02:27.436Z,18.27
2022-08-26T02:05:00.647Z,13.50
2022-08-26T02:07:29.545Z,14.73
2022-08-26T02:09:58.470Z,15.50
2022-08-26T02:12:27.755Z,18.37
2022-08-26T02:14:58.930Z,15.70
2022-08-26T02:17:29.978Z,17.57
2022-08-26T02:19:58.763Z,16.97
2022-08-26T02:22:26.405Z,18.50
2022-08-26T02:24:57.353Z,16.50
2022-08-26T02:27:32.165Z,22.97
2022-08-26T02:30:07.935Z,18.23
2022-08-26T02:32:35.496Z,17.27
2022-08-26T02:35:03.071Z,17.70
2022-08-26T02:37:32.800Z,19.40
2022-08-26T02:40:01.923Z,16.23
2022-08-26T02:42:32.285Z,18.30
2022-08-26T02:45:01.049Z,17.27
2022-08-26T02:47:28.901Z,16.13
2022-08-26T02:49:56.887Z,15.17
2022-08-26T02:52:25.328Z,19.20
2022-08-26T02:54:53.337Z,16.20
2022-08-26T02:57:20.957Z,19.80
2022-08-26T02:59:51.256Z,20.43
2022-08-26T03:02:18.865Z,20.20
2022-08-26T03:04:58.144Z,17.10
2022-08-26T03:07:29.858Z,16.40
2022-08-26T03:09:57.459Z,18.27
2022-08-26T03:12:25.572Z,15.53
2022-08-26T03:14:54.704Z,18.03
2022-08-26T03:17:22.391Z,15.50
2022-08-26T03:19:54.655Z,15.37
2022-08-26T03:22:25.716Z,14.13
2022-08-26T03:24:55.033Z,16.47
2022-08-26T03:27:22.642Z,15.27
2022-08-26T03:30:07.682Z,15.57
2022-08-26T03:32:41.524Z,19.33
2022-08-26T03:35:09.882Z,15.63
2022-08-26T03:37:37.457Z,16.77
2022-08-26T03:40:08.963Z,17.63
2022-08-26T03:42:36.785Z,19.00
2022-08-26T03:45:05.641Z,17.73
2022-08-26T03:47:33.673Z,17.10
2022-08-26T03:50:03.284Z,18.33
2022-08-26T03:52:31.689Z,21.20
2022-08-26T03:54:59.293Z,15.90
2022-08-26T03:57:28.309Z,17.00
2022-08-26T03:59:55.876Z,17.20
2022-08-26T04:02:23.592Z,20.70
2022-08-26T04:04:51.494Z,20.80
2022-08-26T04:07:20.425Z,20.50
2022-08-26T04:09:48.498Z,20.13
2022-08-26T04:12:16.070Z,19.80
2022-08-26T04:14:44.041Z,19.40
2022-08-26T04:17:12.110Z,18.80
2022-08-26T04:19:40.837Z,18.37
2022-08-26T04:22:08.580Z,20.80
2022-08-26T04:24:39.804Z,19.43
2022-08-26T04:27:08.200Z,23.00
2022-08-26T04:29:35.801Z,19.50
2022-08-26T04:32:04.077Z,25.57
2022-08-26T04:34:32.757Z,19.83
2022-08-26T04:37:01.216Z,22.30
2022-08-26T04:39:29.216Z,18.13
2022-08-26T04:41:58.545Z,19.10
2022-08-26T04:44:28.460Z,19.37
2022-08-26T04:46:57.117Z,18.10
2022-08-26T04:49:26.097Z,19.03
2022-08-26T04:51:55.298Z,23.97
2022-08-26T04:54:23.561Z,17.67
2022-08-26T04:56:52.826Z,18.90
2022-08-26T04:59:21.762Z,22.10
2022-08-26T05:01:51.365Z,19.30
2022-08-26T05:04:20.986Z,20.10
2022-08-26T05:06:50.517Z,19.83
2022-08-26T05:09:19.880Z,22.97
2022-08-26T05:11:52.087Z,17.73
2022-08-26T05:14:23.060Z,14.73
2022-08-26T05:16:50.980Z,16.60
2022-08-26T05:19:19.615Z,17.07
2022-08-26T05:21:48.302Z,15.77
2022-08-26T05:24:16.426Z,17.47
2022-08-26T05:26:44.806Z,17.67
2022-08-26T05:29:12.704Z,14.13
2022-08-26T05:31:41.625Z,15.53
2022-08-26T05:34:09.242Z,13.83
2022-08-26T05:36:37.857Z,13.70
2022-08-26T05:39:07.319Z,14.53
2022-08-26T05:41:38.294Z,17.03
2022-08-26T05:44:08.591Z,16.83
2022-08-26T05:46:37.513Z,14.30
2022-08-26T05:49:12.778Z,15.80
2022-08-26T05:51:41.259Z,14.10
2022-08-26T05:54:10.512Z,19.13
2022-08-26T05:56:38.389Z,13.90
2022-08-26T05:59:06.720Z,12.40
2022-08-26T06:01:42.666Z,12.03
2022-08-26T06:04:12.936Z,13.77
2022-08-26T06:06:41.596Z,10.53
2022-08-26T06:09:11.604Z,11.57
2022-08-26T06:11:40.152Z,14.83
2022-08-26T06:14:08.742Z,11.13
2022-08-26T06:16:38.200Z,11.63
2022-08-26T06:19:10.660Z,12.23
2022-08-26T06:21:42.460Z,12.43
2022-08-26T06:24:31.375Z,13.47
2022-08-26T06:27:02.110Z,12.40
2022-08-26T06:29:33.470Z,13.50
2022-08-26T06:32:02.533Z,11.80
2022-08-26T06:34:31.133Z,12.57
2022-08-26T06:37:03.472Z,17.20
2022-08-26T06:39:32.089Z,16.97
2022-08-26T06:41:59.849Z,19.10
2022-08-26T06:44:27.790Z,13.20
2022-08-26T06:46:55.884Z,13.53
2022-08-26T06:49:27.263Z,13.37
2022-08-26T06:51:57.922Z,15.70
2022-08-26T06:54:27.196Z,21.57
2022-08-26T06:56:56.702Z,14.07
2022-08-26T06:59:24.356Z,14.40
2022-08-26T07:01:52.195Z,16.33
2022-08-26T07:04:22.398Z,16.90
2022-08-26T07:06:52.781Z,16.43
2022-08-26T07:09:21.749Z,15.97
2022-08-26T07:11:52.162Z,16.77
2022-08-26T07:14:21.391Z,17.00
2022-08-26T07:16:50.483Z,15.93
2022-08-26T07:19:27.513Z,15.77
2022-08-26T07:21:59.321Z,15.40
2022-08-26T07:24:28.497Z,14.60
2022-08-26T07:27:01.357Z,16.53
2022-08-26T07:29:29.806Z,16.50
2022-08-26T07:31:57.548Z,15.87
2022-08-26T07:34:25.504Z,16.30
2022-08-26T07:36:55.321Z,17.50
2022-08-26T07:39:24.084Z,16.13
2022-08-26T07:41:52.400Z,15.50
2022-08-26T07:44:21.943Z,15.63
2022-08-26T07:46:52.233Z,15.40
2022-08-26T07:49:21.794Z,15.27
2022-08-26T07:51:49.766Z,16.80
2022-08-26T07:54:17.719Z,18.30
2022-08-26T07:56:48.409Z,16.90
2022-08-26T07:59:17.505Z,21.33
2022-08-26T08:01:47.159Z,20.43
2022-08-26T08:04:15.290Z,18.20
2022-08-26T08:06:43.976Z,17.90
2022-08-26T08:09:12.714Z,16.43
2022-08-26T08:11:41.339Z,16.13
2022-08-26T08:14:11.813Z,16.23
2022-08-26T08:16:42.212Z,18.10
2022-08-26T08:19:14.930Z,17.40
2022-08-26T08:21:42.765Z,17.40
2022-08-26T08:24:11.448Z,16.07
2022-08-26T08:26:39.652Z,17.33
2022-08-26T08:29:08.723Z,16.57
2022-08-26T08:31:55.839Z,16.90
2022-08-26T08:34:26.666Z,17.63
2022-08-26T08:36:54.581Z,17.17
2022-08-26T08:39:22.489Z,17.27
2022-08-26T08:42:12.693Z,18.37
2022-08-26T08:44:45.451Z,15.87
2022-08-26T08:47:32.597Z,16.23
2022-08-26T08:50:12.964Z,16.87
2022-08-26T08:52:44.519Z,19.00
2022-08-26T08:55:18.256Z,18.63
2022-08-26T08:58:02.261Z,17.60
2022-08-26T09:00:39.940Z,18.07
2022-08-26T09:03:18.052Z,18.33
2022-08-26T09:05:51.390Z,17.80
2022-08-26T09:08:23.736Z,16.67
2022-08-26T09:10:54.447Z,18.30
2022-08-26T09:13:26.109Z,18.63
2022-08-26T09:16:04.020Z,20.73
2022-08-26T09:18:49.330Z,18.83
2022-08-26T09:21:20.591Z,18.40
2022-08-26T09:23:52.389Z,21.27
2022-08-26T09:26:25.942Z,23.90
2022-08-26T09:28:58.621Z,19.03
2022-08-26T09:31:28.609Z,19.70
2022-08-26T09:34:09.380Z,20.77
2022-08-26T09:36:41.480Z,18.40
2022-08-26T09:39:26.605Z,24.00
2022-08-26T09:42:10.172Z,20.50
2022-08-26T09:44:53.853Z,23.60
2022-08-26T09:47:24.498Z,20.73
2022-08-26T09:50:00.170Z,25.53
2022-08-26T09:52:29.065Z,24.20
2022-08-26T09:55:04.898Z,20.70
2022-08-26T09:57:34.432Z,23.87
2022-08-26T10:00:03.388Z,21.90
2022-08-26T10:02:39.393Z,22.27
2022-08-26T10:05:11.120Z,20.20
2022-08-26T10:07:44.021Z,20.27
2022-08-26T10:10:16.872Z,25.53
2022-08-26T10:12:53.433Z,19.27
2022-08-26T10:15:22.468Z,19.87
2022-08-26T10:17:56.434Z,18.77
2022-08-26T10:20:27.325Z,19.50
2022-08-26T10:23:02.483Z,17.37
2022-08-26T10:25:34.652Z,18.23
2022-08-26T10:28:11.118Z,16.97
2022-08-26T10:30:44.512Z,16.93
2022-08-26T10:33:15.529Z,16.47
2022-08-26T10:35:52.123Z,16.50
2022-08-26T10:38:29.304Z,16.87
2022-08-26T10:41:03.469Z,18.23
2022-08-26T10:43:43.284Z,17.70
2022-08-26T10:46:17.091Z,16.83
2022-08-26T10:48:48.709Z,18.80
2022-08-26T10:51:22.705Z,16.90
2022-08-26T10:53:57.036Z,16.97
2022-08-26T10:56:36.985Z,16.77
2022-08-26T10:59:14.225Z,16.07
2022-08-26T11:01:51.022Z,16.57
2022-08-26T11:04:34.985Z,17.33
2022-08-26T11:07:41.233Z,16.27
2022-08-26T11:10:32.884Z,17.80
2022-08-26T11:13:03.552Z,19.07
2022-08-26T11:16:10.625Z,19.87
2022-08-26T11:18:48.533Z,21.50
2022-08-26T11:21:50.812Z,19.27
2022-08-26T11:25:02.380Z,18.60
2022-08-26T11:28:05.214Z,17.40
2022-08-26T11:30:45.044Z,21.23
2022-08-26T11:33:59.458Z,21.20
2022-08-26T11:36:52.713Z,24.93
2022-08-26T11:39:25.322Z,20.70
2022-08-26T11:41:55.418Z,20.27
2022-08-26T11:44:29.881Z,22.40
2022-08-26T11:47:00.202Z,21.20
2022-08-26T11:49:29.437Z,21.13
2022-08-26T11:52:11.206Z,20.73
2022-08-26T11:54:38.814Z,21.00
2022-08-26T11:57:13.325Z,20.97
2022-08-26T11:59:43.398Z,20.90
2022-08-26T12:02:17.802Z,24.03
2022-08-26T12:04:49.553Z,20.03
2022-08-26T12:07:24.092Z,22.20
2022-08-26T12:09:56.369Z,25.07
2022-08-26T12:12:30.756Z,20.90
2022-08-26T12:15:14.477Z,21.70
2022-08-26T12:17:42.932Z,18.23
2022-08-26T12:20:30.077Z,22.83
2022-08-26T12:23:00.129Z,20.57
2022-08-26T12:25:28.920Z,20.60
2022-08-26T12:28:06.366Z,21.67
2022-08-26T12:30:35.893Z,21.63
2022-08-26T12:33:10.825Z,19.83
2022-08-26T12:35:52.851Z,26.77
2022-08-26T12:38:22.848Z,21.03
2022-08-26T12:40:51.548Z,19.53
2022-08-26T12:43:38.696Z,20.90
2022-08-26T12:46:09.985Z,18.30
2022-08-26T12:48:41.234Z,23.20
2022-08-26T12:51:18.606Z,20.47
2022-08-26T12:53:46.209Z,22.50
2022-08-26T12:56:26.408Z,18.43
2022-08-26T12:59:06.984Z,20.70
2022-08-26T13:01:43.536Z,21.47
2022-08-26T13:04:34.464Z,20.47
2022-08-26T13:07:21.740Z,21.37
2022-08-26T13:09:51.147Z,20.20
2022-08-26T13:12:27.376Z,23.00
2022-08-26T13:14:55.493Z,22.67
2022-08-26T13:17:24.393Z,23.60
2022-08-26T13:19:52.009Z,21.20
2022-08-26T13:22:24.132Z,18.00
2022-08-26T13:24:54.452Z,23.60
2022-08-26T13:27:24.421Z,21.27
2022-08-26T13:29:52.478Z,21.90
2022-08-26T13:32:22.393Z,19.97
2022-08-26T13:34:57.490Z,19.67
2022-08-26T13:37:34.365Z,23.93
2022-08-26T13:40:02.873Z,21.20
2022-08-26T13:42:31.124Z,22.70
2022-08-26T13:44:59.666Z,22.33
2022-08-26T13:47:27.226Z,22.90
2022-08-26T13:49:57.085Z,21.93
2022-08-26T13:52:27.321Z,20.83
2022-08-26T13:54:58.988Z,18.43
2022-08-26T13:57:27.922Z,15.77
2022-08-26T13:59:56.986Z,18.63
2022-08-26T14:02:25.197Z,16.73
2022-08-26T14:04:53.652Z,23.53
2022-08-26T14:07:22.934Z,18.40
2022-08-26T14:09:50.961Z,25.00
2022-08-26T14:12:18.607Z,33.90
2022-08-26T14:14:46.226Z,16.47
2022-08-26T14:17:17.186Z,20.97
2022-08-26T14:19:47.574Z,19.97
2022-08-26T14:22:17.238Z,21.57
2022-08-26T14:24:46.617Z,22.80
2022-08-26T14:27:14.687Z,19.23
2022-08-26T14:29:42.396Z,21.30
2022-08-26T14:32:16.893Z,6.23
2022-08-26T14:34:48.545Z,5.33
2022-08-26T14:37:16.150Z,6.00
2022-08-26T14:39:43.978Z,6.43
2022-08-26T14:42:15.062Z,5.03
2022-08-26T14:44:47.296Z,8.07
2022-08-26T14:47:14.864Z,6.53
2022-08-26T14:49:42.429Z,6.93
2022-08-26T14:52:10.006Z,7.73
2022-08-26T14:54:37.718Z,7.37
2022-08-26T14:57:08.061Z,9.27
2022-08-26T14:59:39.037Z,8.90
2022-08-26T15:02:07.958Z,10.97
2022-08-26T15:04:35.936Z,10.60
2022-08-26T15:07:04.649Z,13.03
2022-08-26T15:09:34.632Z,17.40
2022-08-26T15:12:02.592Z,17.80
2022-08-26T15:14:33.000Z,12.20
2022-08-26T15:17:02.382Z,17.63
2022-08-26T15:19:30.058Z,13.83
2022-08-26T15:21:57.678Z,14.60
2022-08-26T15:24:28.744Z,12.27
2022-08-26T15:26:56.561Z,11.80
2022-08-26T15:29:24.726Z,13.30
2022-08-26T15:31:52.369Z,11.80
2022-08-26T15:34:26.305Z,9.90
2022-08-26T15:36:54.069Z,9.70
2022-08-26T15:39:22.034Z,9.90
2022-08-26T15:41:49.644Z,9.87
2022-08-26T15:44:19.626Z,11.43
2022-08-26T15:46:49.017Z,10.80
2022-08-26T15:49:18.626Z,10.97
2022-08-26T15:51:50.246Z,11.60
2022-08-26T15:54:20.409Z,10.70
2022-08-26T15:56:50.435Z,11.30
2022-08-26T15:59:18.858Z,10.83
2022-08-26T16:01:46.586Z,10.73
2022-08-26T16:04:14.725Z,10.73
2022-08-26T16:06:43.406Z,10.60
2022-08-26T16:09:12.340Z,10.67
2022-08-26T16:11:39.944Z,10.83
2022-08-26T16:14:08.263Z,10.37
2022-08-26T16:16:39.204Z,13.07
2022-08-26T16:19:07.640Z,11.50
2022-08-26T16:21:35.674Z,12.40
2022-08-26T16:24:04.221Z,11.03
2022-08-26T16:26:35.125Z,11.50
2022-08-26T16:29:05.249Z,12.20
2022-08-26T16:31:32.987Z,12.03
2022-08-26T16:34:00.633Z,12.63
2022-08-26T16:36:28.388Z,10.47
2022-08-26T16:38:56.671Z,11.03
2022-08-26T16:41:26.085Z,10.70
2022-08-26T16:43:55.801Z,9.70
2022-08-26T16:46:25.672Z,10.17
2022-08-26T16:48:53.932Z,10.87
2022-08-26T16:51:23.849Z,10.53
2022-08-26T16:53:53.400Z,11.50
2022-08-26T16:56:23.152Z,11.17
2022-08-26T16:58:56.672Z,11.27
2022-08-26T17:01:24.711Z,11.43
2022-08-26T17:03:52.476Z,11.20
2022-08-26T17:06:20.072Z,10.33
2022-08-26T17:08:47.805Z,11.33
2022-08-26T17:11:15.984Z,11.33
2022-08-26T17:13:43.696Z,12.13
2022-08-26T17:16:13.583Z,12.27
2022-08-26T17:18:41.580Z,17.53
2022-08-26T17:21:12.048Z,11.27
2022-08-26T17:23:40.845Z,11.20
2022-08-26T17:26:09.077Z,15.10
2022-08-26T17:28:36.962Z,10.20
2022-08-26T17:31:05.735Z,10.80
2022-08-26T17:33:34.794Z,10.60
2022-08-26T17:36:02.912Z,12.40
2022-08-26T17:38:30.498Z,11.07
2022-08-26T17:40:58.997Z,12.33
2022-08-26T17:43:27.621Z,14.23
2022-08-26T17:46:04.575Z,14.63
2022-08-26T17:48:37.288Z,15.10
2022-08-26T17:51:08.268Z,17.80
2022-08-26T17:53:35.872Z,15.57
2022-08-26T17:56:05.734Z,16.20
2022-08-26T17:58:36.518Z,15.33
2022-08-26T18:01:06.071Z,15.33
2022-08-26T18:03:33.922Z,15.97
2022-08-26T18:06:03.632Z,16.80
2022-08-26T18:08:31.185Z,15.50
2022-08-26T18:10:58.988Z,17.00
2022-08-26T18:13:26.577Z,17.40
2022-08-26T18:15:54.134Z,17.00
2022-08-26T18:18:21.753Z,17.27
2022-08-26T18:20:51.969Z,14.10
2022-08-26T18:23:31.434Z,20.40
2022-08-26T18:25:59.340Z,20.70
2022-08-26T18:28:26.926Z,19.73
2022-08-26T18:30:54.735Z,19.60
2022-08-26T18:33:25.454Z,21.13
2022-08-26T18:35:53.366Z,22.07
2022-08-26T18:38:20.937Z,22.13
2022-08-26T18:40:51.880Z,22.13
2022-08-26T18:43:19.473Z,23.40
2022-08-26T18:45:47.168Z,21.23
2022-08-26T18:48:15.584Z,22.57
2022-08-26T18:50:47.176Z,24.43
2022-08-26T18:53:15.583Z,23.20
2022-08-26T18:55:43.118Z,23.80
2022-08-26T18:58:12.215Z,23.20
2022-08-26T19:00:39.833Z,23.67
2022-08-26T19:03:18.383Z,22.93
2022-08-26T19:05:46.870Z,21.57
2022-08-26T19:08:14.454Z,23.20
2022-08-26T19:10:42.087Z,20.40
2022-08-26T19:13:10.622Z,19.60
2022-08-26T19:15:40.573Z,20.30
2022-08-26T19:18:08.821Z,21.70
2022-08-26T19:20:40.656Z,21.40
2022-08-26T19:23:30.261Z,19.90
2022-08-26T19:25:58.703Z,19.47
2022-08-26T19:28:26.339Z,20.53
2022-08-26T19:30:56.525Z,19.03
2022-08-26T19:33:24.385Z,19.97
2022-08-26T19:35:52.662Z,20.97
2022-08-26T19:38:20.881Z,21.37
2022-08-26T19:40:48.858Z,20.57
2022-08-26T19:43:16.573Z,18.37
2022-08-26T19:45:44.548Z,17.70
2022-08-26T19:48:13.478Z,18.93
2022-08-26T19:50:42.140Z,17.10
2022-08-26T19:53:10.161Z,19.70
2022-08-26T19:55:37.861Z,18.97
2022-08-26T19:58:06.023Z,17.17
2022-08-26T20:00:35.577Z,18.50
2022-08-26T20:03:03.444Z,19.83
2022-08-26T20:05:32.436Z,21.17
2022-08-26T20:08:00.283Z,21.93
2022-08-26T20:10:28.073Z,21.83
2022-08-26T20:12:55.636Z,19.60
2022-08-26T20:15:23.620Z,22.27
2022-08-26T20:17:51.319Z,25.03
2022-08-26T20:20:36.817Z,23.80
2022-08-26T20:23:05.996Z,29.53
2022-08-26T20:25:34.692Z,24.33
2022-08-26T20:28:02.360Z,26.73
2022-08-26T20:30:29.928Z,29.97
2022-08-26T20:32:57.625Z,27.60
2022-08-26T20:35:25.524Z,23.40
2022-08-26T20:37:53.105Z,23.83
2022-08-26T20:40:22.567Z,22.63
2022-08-26T20:42:50.177Z,27.93
2022-08-26T20:45:17.848Z,24.67
2022-08-26T20:47:45.405Z,22.47
2022-08-26T20:50:12.970Z,23.63
2022-08-26T20:52:40.570Z,25.13
2022-08-26T20:55:08.863Z,21.73
2022-08-26T20:57:37.783Z,20.03
2022-08-26T21:00:07.275Z,31.67
2022-08-26T21:02:35.403Z,19.70
2022-08-26T21:05:03.002Z,19.60
2022-08-26T21:07:30.666Z,23.13
2022-08-26T21:09:58.336Z,26.47
2022-08-26T21:12:27.076Z,24.80
2022-08-26T21:14:56.184Z,21.77
2022-08-26T21:17:23.969Z,24.63
2022-08-26T21:19:51.541Z,27.70
2022-08-26T21:22:19.176Z,26.53
2022-08-26T21:24:46.740Z,22.10
2022-08-26T21:27:14.416Z,27.77
2022-08-26T21:29:49.877Z,34.47
2022-08-26T21:32:21.120Z,30.83
2022-08-26T21:34:48.696Z,27.70
2022-08-26T21:37:16.827Z,29.17
2022-08-26T21:39:45.129Z,33.77
2022-08-26T21:42:12.673Z,28.90
2022-08-26T21:44:40.257Z,38.90
2022-08-26T21:47:07.878Z,27.73
2022-08-26T21:49:36.785Z,35.03
2022-08-26T21:52:05.801Z,29.80
2022-08-26T21:54:33.485Z,34.37
2022-08-26T21:57:01.073Z,30.20
2022-08-26T21:59:28.656Z,35.30
2022-08-26T22:01:56.979Z,30.47
2022-08-26T22:04:24.932Z,38.67
2022-08-26T22:06:55.613Z,41.67
2022-08-26T22:09:25.574Z,35.13
2022-08-26T22:11:54.037Z,35.27
2022-08-26T22:14:23.388Z,32.30
2022-08-26T22:16:54.393Z,31.63
2022-08-26T22:19:23.628Z,31.23
2022-08-26T22:21:53.378Z,34.30
2022-08-26T22:24:24.714Z,29.30
2022-08-26T22:26:52.914Z,35.57
2022-08-26T22:29:21.032Z,37.13
2022-08-26T22:31:48.590Z,31.40
2022-08-26T22:34:19.420Z,39.27
2022-08-26T22:36:49.320Z,28.40
2022-08-26T22:39:25.174Z,37.47
2022-08-26T22:41:53.447Z,38.53
2022-08-26T22:44:22.457Z,36.70
2022-08-26T22:46:54.143Z,28.37
2022-08-26T22:49:22.199Z,31.50
2022-08-26T22:51:50.860Z,30.70
2022-08-26T22:54:18.432Z,35.17
2022-08-26T22:56:47.345Z,29.93
2022-08-26T22:59:16.129Z,27.83
2022-08-26T23:01:44.628Z,32.60
2022-08-26T23:04:12.773Z,31.03
2022-08-26T23:06:43.505Z,22.70
2022-08-26T23:09:17.782Z,33.50
2022-08-26T23:11:47.660Z,36.73
2022-08-26T23:14:15.348Z,32.93
2022-08-26T23:16:43.252Z,35.43
2022-08-26T23:19:13.341Z,32.17
2022-08-26T23:21:41.434Z,30.57
2022-08-26T23:24:10.072Z,25.60
2022-08-26T23:26:38.295Z,29.47
2022-08-26T23:29:08.952Z,36.37
2022-08-26T23:31:38.052Z,35.10
2022-08-26T23:34:23.332Z,37.17
2022-08-26T23:36:51.256Z,33.60
2022-08-26T23:39:19.051Z,36.93
2022-08-26T23:41:46.839Z,32.90
2022-08-26T23:44:15.736Z,30.00
2022-08-26T23:46:43.301Z,29.80
2022-08-26T23:49:10.861Z,36.77
2022-08-26T23:51:57.160Z,34.20
2022-08-26T23:54:24.736Z,29.97
2022-08-26T23:56:52.308Z,35.93
2022-08-26T23:59:21.598Z,35.43
